Accueil
METAR-TAF:

METAR-TAF

Aéroports :

Aéroport d'Anvers

Anvers, Belgique

latitude: 51-12N, longitude: 004-28E, altitude: 12 m

Observation

Le bulletin a été fait il y a 42 minutes, à 17:50 UTC
Vent 7 kt de nord/nord-est
Température 23°C
Humidité 53%
Pression 1019 hPa
Visibilité 10 km ou plus
pas de nuages en-dessous de 1500 mètres et pas de cumulonimbus.

METAR: EBAW 151750Z 03007KT CAVOK 23/13 Q1019 NOSIG

Heure: 20:32 (18:32 UTC)

Prévision

Le bulletin a été fait il y a 1 heure et 31 minutes, à 17:01 UTC
Prévision valable du 15 à 18 UTC au 16 à 03 UTC
Vent 6 kt de nord-est
Visibilité 10 km ou plus
Quelques nuages à une hauteur de 4500 ft

TAF: EBAW 151701Z 1518/1603 05006KT 9999 FEW045

Observations et prévisions météorologiques de plus de 4000 aéroports (messages METAR et TAF).

Les stations disponibles sont représentées par des disques jaunes et rouges sur la carte.

Passer la souris dessus pour voir le nom de la station.

Cliquer dessus pour voir les observations et prévisions météorologiques.

Pour changer de carte: cliquez sur les boutons verts avec une croix noire pour zoomer, sur le bouton vert avec un tiret pour effectuer un zoom arrière, ou sur les flèches vertes pour les cartes adjacentes.


METAR-TAF: